Time,TemperatureF,DewpointF,PressureIn,WindDirection,WindDirectionDegrees,WindSpeedMPH,WindSpeedGustMPH,Humidity,HourlyPrecipIn,Conditions,Clouds,dailyrainin,SoftwareType,DateUTC
2013-04-18 00:02:00,48.0,32.0,30.11,West,259,0.0,0.0,54,0.00,,,0.00,,2013-04-18 07:02:00,
2013-04-18 00:11:00,48.0,32.0,30.12,West,259,0.0,0.0,53,0.00,,,0.00,,2013-04-18 07:11:00,
2013-04-18 00:21:00,48.0,32.0,30.12,West,259,0.0,0.0,53,0.00,,,0.00,,2013-04-18 07:21:00,
2013-04-18 00:32:00,50.0,28.0,30.12,West,260,0.0,1.0,43,0.00,,,0.00,,2013-04-18 07:32:00,
2013-04-18 00:42:00,51.0,28.0,30.12,West,260,0.0,1.0,41,0.00,,,0.00,,2013-04-18 07:42:00,
2013-04-18 00:52:00,51.0,28.0,30.12,West,260,0.0,1.0,41,0.00,,,0.00,,2013-04-18 07:52:00,
2013-04-18 01:02:00,50.0,29.0,30.13,West,260,0.0,0.0,44,0.00,,,0.00,,2013-04-18 08:02:00,
2013-04-18 01:11:00,50.0,27.0,30.13,West,263,0.0,2.0,40,0.00,,,0.00,,2013-04-18 08:11:00,
2013-04-18 01:22:00,50.0,27.0,30.13,West,263,0.0,2.0,40,0.00,,,0.00,,2013-04-18 08:22:00,
2013-04-18 01:32:00,53.0,25.0,30.13,NW,315,0.0,2.0,33,0.00,,,0.00,,2013-04-18 08:32:00,
2013-04-18 01:42:00,55.0,25.0,30.13,North,10,0.0,2.0,31,0.00,,,0.00,,2013-04-18 08:42:00,
2013-04-18 01:52:00,55.0,25.0,30.13,North,10,0.0,2.0,31,0.00,,,0.00,,2013-04-18 08:52:00,
2013-04-18 02:01:00,54.0,25.0,30.13,NNE,18,0.0,2.0,32,0.00,,,0.00,,2013-04-18 09:01:00,
2013-04-18 02:11:00,54.0,25.0,30.13,North,5,0.0,2.0,32,0.00,,,0.00,,2013-04-18 09:11:00,
2013-04-18 02:22:00,54.0,25.0,30.13,North,5,0.0,2.0,32,0.00,,,0.00,,2013-04-18 09:22:00,
2013-04-18 02:32:00,54.0,25.0,30.14,NNE,17,0.0,2.0,32,0.00,,,0.00,,2013-04-18 09:32:00,
2013-04-18 02:42:00,54.0,25.0,30.14,NNE,23,0.0,2.0,32,0.00,,,0.00,,2013-04-18 09:42:00,
2013-04-18 02:53:00,54.0,25.0,30.14,NNE,23,0.0,2.0,32,0.00,,,0.00,,2013-04-18 09:53:00,
2013-04-18 03:02:00,54.0,25.0,30.13,North,360,0.0,1.0,32,0.00,,,0.00,,2013-04-18 10:02:00,
2013-04-18 03:12:00,54.0,25.0,30.13,North,360,0.0,1.0,32,0.00,,,0.00,,2013-04-18 10:12:00,
2013-04-18 03:22:00,54.0,23.0,30.13,NNE,26,0.0,4.0,30,0.00,,,0.00,,2013-04-18 10:22:00,
2013-04-18 03:32:00,55.0,24.0,30.12,NE,35,0.0,2.0,30,0.00,,,0.00,,2013-04-18 10:32:00,
2013-04-18 03:42:00,55.0,24.0,30.12,NE,35,0.0,2.0,30,0.00,,,0.00,,2013-04-18 10:42:00,
2013-04-18 03:52:00,56.0,24.0,30.12,ENE,76,0.0,4.0,29,0.00,,,0.00,,2013-04-18 10:52:00,
2013-04-18 04:02:00,56.0,23.0,30.12,NNE,30,0.0,5.0,27,0.00,,,0.00,,2013-04-18 11:02:00,
2013-04-18 04:12:00,56.0,23.0,30.12,NE,42,0.0,4.0,27,0.00,,,0.00,,2013-04-18 11:12:00,
2013-04-18 04:21:00,56.0,23.0,30.12,NE,42,0.0,4.0,27,0.00,,,0.00,,2013-04-18 11:21:00,
2013-04-18 04:32:00,57.0,23.0,30.12,NNE,17,0.0,2.0,27,0.00,,,0.00,,2013-04-18 11:32:00,
2013-04-18 04:42:00,57.0,23.0,30.12,NNE,17,0.0,2.0,27,0.00,,,0.00,,2013-04-18 11:42:00,
2013-04-18 04:52:00,56.0,22.0,30.12,North,5,0.0,1.0,26,0.00,,,0.00,,2013-04-18 11:52:00,
2013-04-18 05:02:00,56.0,22.0,30.13,North,360,0.0,1.0,26,0.00,,,0.00,,2013-04-18 12:02:00,
2013-04-18 05:11:00,56.0,22.0,30.13,North,360,0.0,1.0,26,0.00,,,0.00,,2013-04-18 12:11:00,
2013-04-18 05:22:00,55.0,22.0,30.13,North,360,0.0,1.0,27,0.00,,,0.00,,2013-04-18 12:22:00,
2013-04-18 05:32:00,55.0,21.0,30.13,North,5,0.0,1.0,26,0.00,,,0.00,,2013-04-18 12:32:00,
2013-04-18 05:42:00,55.0,21.0,30.13,North,5,0.0,1.0,26,0.00,,,0.00,,2013-04-18 12:42:00,
2013-04-18 05:52:00,55.0,20.0,30.14,North,5,0.0,2.0,25,0.00,,,0.00,,2013-04-18 12:52:00,
2013-04-18 06:02:00,55.0,21.0,30.14,North,360,0.0,1.0,26,0.00,,,0.00,,2013-04-18 13:02:00,
2013-04-18 06:12:00,55.0,21.0,30.14,North,360,0.0,1.0,26,0.00,,,0.00,,2013-04-18 13:12:00,
2013-04-18 06:22:00,55.0,19.0,30.15,ENE,66,0.0,1.0,24,0.00,,,0.00,,2013-04-18 13:22:00,
2013-04-18 06:32:00,57.0,19.0,30.15,NE,42,0.0,4.0,22,0.00,,,0.00,,2013-04-18 13:32:00,
2013-04-18 06:42:00,58.0,18.0,30.16,East,82,0.0,3.0,21,0.00,,,0.00,,2013-04-18 13:42:00,
2013-04-18 06:52:00,58.0,18.0,30.16,East,82,0.0,3.0,21,0.00,,,0.00,,2013-04-18 13:52:00,
2013-04-18 07:02:00,58.0,18.0,30.16,NE,55,0.0,4.0,21,0.00,,,0.00,,2013-04-18 14:02:00,
2013-04-18 07:11:00,59.0,17.0,30.17,NNE,15,0.0,3.0,19,0.00,,,0.00,,2013-04-18 14:11:00,
2013-04-18 07:22:00,59.0,17.0,30.17,NNE,15,0.0,3.0,19,0.00,,,0.00,,2013-04-18 14:22:00,
2013-04-18 07:32:00,62.0,15.0,30.17,East,99,1.0,8.0,16,0.00,,,0.00,,2013-04-18 14:32:00,
2013-04-18 07:42:00,62.0,15.0,30.17,East,99,1.0,8.0,16,0.00,,,0.00,,2013-04-18 14:42:00,
2013-04-18 08:02:00,65.0,18.0,30.18,NNE,15,0.0,8.0,16,0.00,,,0.00,,2013-04-18 15:02:00,
2013-04-18 08:22:00,66.0,15.0,30.18,NE,44,1.0,5.0,14,0.00,,,0.00,,2013-04-18 15:22:00,
2013-04-18 08:33:00,68.0,15.0,30.17,NNW,338,2.0,14.0,13,0.00,,,0.00,,2013-04-18 15:33:00,
2013-04-18 08:53:00,68.0,15.0,30.17,NNW,338,2.0,14.0,13,0.00,,,0.00,,2013-04-18 15:53:00,
2013-04-18 09:03:00,70.0,13.0,30.18,East,92,1.0,11.0,11,0.00,,,0.00,,2013-04-18 16:03:00,
2013-04-18 09:13:00,71.0,12.0,30.18,ENE,64,3.0,15.0,10,0.00,,,0.00,,2013-04-18 16:13:00,
2013-04-18 09:22:00,71.0,12.0,30.18,ENE,64,3.0,15.0,10,0.00,,,0.00,,2013-04-18 16:22:00,
2013-04-18 09:33:00,71.0,12.0,30.17,WNW,290,2.0,15.0,10,0.00,,,0.00,,2013-04-18 16:33:00,
2013-04-18 09:42:00,72.0,10.0,30.17,ENE,71,3.0,11.0,9,0.00,,,0.00,,2013-04-18 16:42:00,
2013-04-18 10:02:00,73.0,11.0,30.18,WNW,284,2.0,10.0,9,0.00,,,0.00,,2013-04-18 17:02:00,
2013-04-18 10:12:00,74.0,12.0,30.18,ENE,70,2.0,14.0,9,0.00,,,0.00,,2013-04-18 17:12:00,
2013-04-18 10:32:00,74.0,6.0,30.17,East,88,4.0,15.0,7,0.00,,,0.00,,2013-04-18 17:32:00,
2013-04-18 10:42:00,75.0,15.0,30.18,East,86,3.0,12.0,10,0.00,,,0.00,,2013-04-18 17:42:00,
2013-04-18 10:52:00,75.0,15.0,30.18,East,86,3.0,12.0,10,0.00,,,0.00,,2013-04-18 17:52:00,
2013-04-18 11:02:00,76.0,10.0,30.18,NE,55,3.0,13.0,8,0.00,,,0.00,,2013-04-18 18:02:00,
2013-04-18 11:12:00,76.0,7.0,30.17,East,98,6.0,14.0,7,0.00,,,0.00,,2013-04-18 18:12:00,
2013-04-18 11:32:00,76.0,7.0,30.17,ENE,72,3.0,11.0,7,0.00,,,0.00,,2013-04-18 18:32:00,
2013-04-18 11:42:00,77.0,11.0,30.17,ENE,67,3.0,14.0,8,0.00,,,0.00,,2013-04-18 18:42:00,
2013-04-18 11:52:00,77.0,11.0,30.17,ENE,67,3.0,14.0,8,0.00,,,0.00,,2013-04-18 18:52:00,
2013-04-18 12:02:00,77.0,11.0,30.17,NE,55,2.0,10.0,8,0.00,,,0.00,,2013-04-18 19:02:00,
2013-04-18 12:11:00,77.0,11.0,30.17,NE,55,2.0,10.0,8,0.00,,,0.00,,2013-04-18 19:11:00,
2013-04-18 12:21:00,78.0,6.0,30.16,East,82,4.0,15.0,6,0.00,,,0.00,,2013-04-18 19:21:00,
2013-04-18 12:31:00,77.0,8.0,30.16,ESE,123,2.0,9.0,7,0.00,,,0.00,,2013-04-18 19:31:00,
2013-04-18 12:52:00,79.0,6.0,30.16,East,98,2.0,9.0,6,0.00,,,0.00,,2013-04-18 19:52:00,
2013-04-18 13:02:00,78.0,9.0,30.16,East,95,1.0,7.0,7,0.00,,,0.00,,2013-04-18 20:02:00,
2013-04-18 13:32:00,79.0,10.0,30.15,ESE,111,0.0,7.0,7,0.00,,,0.00,,2013-04-18 20:32:00,
2013-04-18 13:42:00,81.0,11.0,30.14,ENE,74,0.0,4.0,7,0.00,,,0.00,,2013-04-18 20:42:00,
2013-04-18 14:02:00,81.0,4.0,30.14,East,93,0.0,9.0,5,0.00,,,0.00,,2013-04-18 21:02:00,
2013-04-18 14:11:00,82.0,4.0,30.14,SW,214,1.0,7.0,5,0.00,,,0.00,,2013-04-18 21:11:00,
2013-04-18 14:21:00,82.0,4.0,30.14,SW,214,1.0,7.0,5,0.00,,,0.00,,2013-04-18 21:21:00,
2013-04-18 14:32:00,81.0,4.0,30.14,SE,143,2.0,15.0,5,0.00,,,0.00,,2013-04-18 21:32:00,
2013-04-18 14:43:00,81.0,11.0,30.13,SE,131,1.0,7.0,7,0.00,,,0.00,,2013-04-18 21:43:00,
2013-04-18 15:02:00,82.0,8.0,30.12,WNW,296,1.0,9.0,6,0.00,,,0.00,,2013-04-18 22:02:00,
2013-04-18 15:12:00,82.0,8.0,30.12,SSW,203,3.0,8.0,6,0.00,,,0.00,,2013-04-18 22:12:00,
2013-04-18 15:32:00,82.0,8.0,30.12,WSW,248,2.0,9.0,6,0.00,,,0.00,,2013-04-18 22:32:00,
2013-04-18 15:42:00,81.0,11.0,30.11,WSW,248,1.0,10.0,7,0.00,,,0.00,,2013-04-18 22:42:00,
2013-04-18 16:03:00,81.0,11.0,30.11,WNW,293,0.0,13.0,7,0.00,,,0.00,,2013-04-18 23:03:00,
2013-04-18 16:11:00,81.0,11.0,30.11,West,267,2.0,10.0,7,0.00,,,0.00,,2013-04-18 23:11:00,
2013-04-18 16:32:00,81.0,14.0,30.11,West,269,2.0,10.0,8,0.00,,,0.00,,2013-04-18 23:32:00,
2013-04-18 16:42:00,79.0,10.0,30.11,NW,309,5.0,14.0,7,0.00,,,0.00,,2013-04-18 23:42:00,
2013-04-18 17:01:00,79.0,10.0,30.10,NW,310,2.0,10.0,7,0.00,,,0.00,,2013-04-19 00:01:00,
2013-04-18 17:11:00,78.0,9.0,30.10,WNW,298,5.0,11.0,7,0.00,,,0.00,,2013-04-19 00:11:00,
2013-04-18 17:31:00,78.0,6.0,30.10,NW,304,2.0,10.0,6,0.00,,,0.00,,2013-04-19 00:31:00,
2013-04-18 18:01:00,78.0,9.0,30.11,SSW,202,1.0,10.0,7,0.00,,,0.00,,2013-04-19 01:01:00,
2013-04-18 18:31:00,76.0,10.0,30.11,WSW,244,2.0,8.0,8,0.00,,,0.00,,2013-04-19 01:31:00,
2013-04-18 18:52:00,75.0,10.0,30.12,WNW,297,1.0,9.0,8,0.00,,,0.00,,2013-04-19 01:52:00,
2013-04-18 19:01:00,74.0,9.0,30.12,WSW,242,0.0,8.0,8,0.00,,,0.00,,2013-04-19 02:01:00,
2013-04-18 19:31:00,71.0,14.0,30.12,WNW,284,0.0,5.0,11,0.00,,,0.00,,2013-04-19 02:31:00,
2013-04-18 20:01:00,69.0,18.0,30.12,West,277,0.0,5.0,14,0.00,,,0.00,,2013-04-19 03:01:00,
2013-04-18 20:32:00,67.0,23.0,30.12,WNW,297,0.0,0.0,19,0.00,,,0.00,,2013-04-19 03:32:00,
2013-04-18 20:43:00,67.0,23.0,30.12,WNW,297,0.0,0.0,19,0.00,,,0.00,,2013-04-19 03:43:00,
2013-04-18 20:53:00,64.0,26.0,30.13,WNW,297,0.0,0.0,24,0.00,,,0.00,,2013-04-19 03:53:00,
2013-04-18 21:03:00,61.0,28.0,30.14,WNW,297,0.0,0.0,28,0.00,,,0.00,,2013-04-19 04:03:00,
2013-04-18 21:12:00,61.0,28.0,30.14,WNW,297,0.0,0.0,28,0.00,,,0.00,,2013-04-19 04:12:00,
2013-04-18 21:23:00,59.0,28.0,30.14,WNW,297,0.0,1.0,30,0.00,,,0.00,,2013-04-19 04:23:00,
2013-04-18 21:32:00,57.0,27.0,30.15,WNW,297,0.0,0.0,31,0.00,,,0.00,,2013-04-19 04:32:00,
2013-04-18 21:43:00,56.0,27.0,30.15,WNW,297,0.0,0.0,33,0.00,,,0.00,,2013-04-19 04:43:00,
2013-04-18 21:52:00,56.0,27.0,30.15,WNW,297,0.0,0.0,33,0.00,,,0.00,,2013-04-19 04:52:00,
2013-04-18 22:02:00,55.0,29.0,30.15,WNW,297,0.0,0.0,37,0.00,,,0.00,,2013-04-19 05:02:00,
2013-04-18 22:11:00,55.0,29.0,30.15,WNW,297,0.0,0.0,37,0.00,,,0.00,,2013-04-19 05:11:00,
2013-04-18 22:22:00,54.0,28.0,30.15,WNW,297,0.0,0.0,37,0.00,,,0.00,,2013-04-19 05:22:00,
2013-04-18 22:31:00,53.0,28.0,30.15,WNW,297,0.0,0.0,38,0.00,,,0.00,,2013-04-19 05:31:00,
2013-04-18 22:42:00,53.0,28.0,30.15,WNW,297,0.0,0.0,38,0.00,,,0.00,,2013-04-19 05:42:00,
2013-04-18 22:52:00,53.0,29.0,30.14,WNW,297,0.0,0.0,39,0.00,,,0.00,,2013-04-19 05:52:00,
2013-04-18 23:01:00,52.0,32.0,30.14,WNW,297,0.0,0.0,46,0.00,,,0.00,,2013-04-19 06:01:00,
2013-04-18 23:11:00,51.0,31.0,30.14,WNW,297,0.0,1.0,47,0.00,,,0.00,,2013-04-19 06:11:00,
2013-04-18 23:22:00,51.0,31.0,30.14,WNW,297,0.0,1.0,47,0.00,,,0.00,,2013-04-19 06:22:00,
2013-04-18 23:31:00,50.0,31.0,30.15,WNW,297,0.0,0.0,47,0.00,,,0.00,,2013-04-19 06:31:00,
2013-04-18 23:42:00,50.0,31.0,30.15,WNW,297,0.0,0.0,47,0.00,,,0.00,,2013-04-19 06:42:00,
2013-04-18 23:52:00,50.0,27.0,30.15,WNW,297,0.0,0.0,41,0.00,,,0.00,,2013-04-19 06:52:00,